レゾリュート の空港の天気 - METARとTAF

レゾリュート空港 ( CYRB / YRB ) - カナダ ヌナブト準州レゾリュート
飛行場実況気象(Metar)
観測時間05/28 05:00 CDT (05/28 10:00 UTC)
風向・風速北東 8m/s
視程10km以上
天気現象
少しの雲 雲底高度 1220m
少しの雲 雲底高度 5180m
気温-11℃
湿度72%
気圧1016.8hPa
METARCYRB 281000Z 04016KT 25SM FEW040 FEW170 M11/M15 A3000 RMK SC2AC1 AC TR SLP168
過去の天気等 Google飛行場航空写真 Wunderground天気予報

過去48時間のMETAR

飛行場予報(TAF)
発表時間: 5/28 00:40 CDT (5/28 05:40 UTC)
予報対象時間: 28日1時 CDT ~ 29日1時 CDT
風向・風速北東 8m/s
視程10km以上
全天の4割程度の雲 雲底高度 6100m
28日16時 CDT から
風向・風速北北西 8m/s 瞬間風速 13m/s
視程10km以上
全天の4割程度の雲 雲底高度 610m
全天の8割程度の雲 雲底高度 6100m
TAF CYRB 280540Z 2806/2906 04015KT P6SM SCT200
FM282100 34015G25KT P6SM SCT020 BKN200 RMK NXT FCST BY 281200Z